Airfield :
LOGIN :

Register | Disclaimer

   EN    FR    IT 

 










Legend :    VFR   Marginal VFR   IFR   Intensive IFR   Very Intensive IFR
Visi :
Ceiling :
>= 8 km
>= 3000ft
5 to 8 km
1000 to 3000 ft
1500m to 5 km
500 to 1000 ft
800 to 1500m
200 to 500 ft
< 800m
< 200 ft
Symbols :   Thunderstorms  Fog  Heavy snow  Heavy precipitations  Wind > 20 kt
SIGMETs :     Misc.  Thunderstorms  Icing  Turbulence  Mountain Waves  Volcanic Ashes






- Airport Elevation : 297 ft


EGVP - Middle Wallop

CURRENT METAR :
  • 190550Z 04011KT 9999 FEW014 BKN015 13/09 Q1019 RMK WHT

EXPIRED METARs :
  • 190520Z AUTO 03009KT 9999 OVC014/// 13/10 Q1019
  • 190450Z 02008KT 9999 FEW014 BKN015 12/10 Q1019 RMK WHT
  • 190420Z AUTO 03006KT 9999 OVC014/// 12/10 Q1019
  • 190350Z AUTO 05008KT 9999 OVC011/// 12/10 Q1018
  • 190320Z AUTO 04008KT 9999 OVC009/// 12/10 Q1018
  • 190250Z AUTO 03007KT 9999 BKN009/// 12/10 Q1018
  • 190220Z AUTO 03006KT 9999 NCD 12/10 Q1018
  • 190150Z AUTO 02005KT 9999 NCD 12/10 Q1018
  • 190120Z AUTO 02005KT 9999 NCD 12/10 Q1017
  • 190050Z AUTO 01005KT 9999 NCD 12/10 Q1017

Expired Forecast.
ATIS : +44 1980 674 142



MET'MAP, your aeronautical weather chart ! - Copyright ORBIFLY December 2007 - Disclaimer

ORBIFLY MET'MAP TEAM :

Programming & Development : Alexandra Zaïnal
Original concept : Baudouin d'Aumeries
Technical & hardware support : Manuel Goepfert
Assistance : Marc-Olivier Méhu




SOURCES & CREDITS :

   NOAA